createdAt,value
2018-12-31T00:01:20.792Z,51.85
2018-12-31T00:07:25.022Z,53.42
2018-12-31T00:13:29.213Z,51.92
2018-12-31T00:19:33.388Z,52.62
2018-12-31T00:25:37.588Z,34.08
2018-12-31T00:31:41.779Z,47.40
2018-12-31T00:37:46.018Z,53.13
2018-12-31T00:43:50.219Z,49.75
2018-12-31T00:49:54.509Z,68.80
2018-12-31T00:55:58.690Z,64.62
2018-12-31T01:02:03.162Z,58.65
2018-12-31T01:08:07.358Z,61.73
2018-12-31T01:14:11.682Z,61.92
2018-12-31T01:20:15.846Z,60.23
2018-12-31T01:26:20.139Z,57.62
2018-12-31T01:32:24.340Z,56.02
2018-12-31T01:38:28.520Z,50.95
2018-12-31T01:44:32.892Z,52.25
2018-12-31T01:50:37.093Z,49.60
2018-12-31T01:56:41.291Z,46.33
2018-12-31T02:02:45.463Z,46.40
2018-12-31T02:08:49.695Z,44.95
2018-12-31T02:14:53.855Z,40.40
2018-12-31T02:20:58.222Z,38.88
2018-12-31T02:27:02.436Z,38.17
2018-12-31T02:33:06.731Z,37.63
2018-12-31T02:39:10.940Z,40.92
2018-12-31T02:45:15.384Z,38.17
2018-12-31T02:51:19.616Z,38.65
2018-12-31T02:57:23.894Z,40.85
2018-12-31T03:03:28.076Z,38.20
2018-12-31T03:09:32.396Z,34.70
2018-12-31T03:15:36.638Z,34.15
2018-12-31T03:21:40.966Z,34.38
2018-12-31T03:27:45.191Z,34.40
2018-12-31T03:33:49.633Z,32.60
2018-12-31T03:39:53.813Z,31.42
2018-12-31T03:45:58.108Z,28.60
2018-12-31T03:52:02.364Z,29.98
2018-12-31T03:58:06.608Z,28.67
2018-12-31T04:04:10.823Z,29.05
2018-12-31T04:10:15.036Z,27.65
2018-12-31T04:16:19.295Z,28.32
2018-12-31T04:22:23.488Z,28.17
2018-12-31T04:28:27.670Z,24.27
2018-12-31T04:34:31.977Z,30.57
2018-12-31T04:40:36.150Z,28.42
2018-12-31T04:46:40.384Z,27.62
2018-12-31T04:52:44.724Z,25.02
2018-12-31T04:58:48.912Z,22.67
2018-12-31T05:04:53.264Z,23.92
2018-12-31T05:10:57.480Z,23.50
2018-12-31T05:17:01.800Z,27.05
2018-12-31T05:23:05.983Z,25.43
2018-12-31T05:29:10.430Z,23.90
2018-12-31T05:35:14.620Z,25.23
2018-12-31T05:41:19.100Z,23.32
2018-12-31T05:47:23.304Z,24.63
2018-12-31T05:53:27.620Z,27.90
2018-12-31T05:59:31.808Z,27.17
2018-12-31T06:05:36.084Z,30.32
2018-12-31T06:11:40.293Z,27.75
2018-12-31T06:17:46.642Z,27.98
2018-12-31T06:23:50.818Z,29.40
2018-12-31T06:29:55.006Z,29.60
2018-12-31T06:35:59.296Z,29.50
2018-12-31T06:42:03.666Z,27.65
2018-12-31T06:48:07.874Z,26.10
2018-12-31T06:54:12.220Z,30.90
2018-12-31T07:00:16.433Z,27.35
2018-12-31T07:06:20.692Z,31.10
2018-12-31T07:12:24.931Z,29.67
2018-12-31T07:18:29.263Z,31.30
2018-12-31T07:24:33.435Z,30.40
2018-12-31T07:30:37.742Z,31.27
2018-12-31T07:36:41.923Z,35.52
2018-12-31T07:42:46.187Z,31.57
2018-12-31T07:48:50.381Z,32.58
2018-12-31T07:54:54.571Z,29.65
2018-12-31T08:00:58.790Z,39.98
2018-12-31T08:07:02.980Z,37.23
2018-12-31T08:13:07.359Z,33.63
2018-12-31T08:19:11.578Z,31.45
2018-12-31T08:25:16.039Z,31.77
2018-12-31T08:31:20.233Z,31.80
2018-12-31T08:37:24.437Z,28.50
2018-12-31T08:43:28.618Z,30.55
2018-12-31T08:49:33.015Z,32.40
2018-12-31T08:55:37.202Z,29.50
2018-12-31T09:01:41.534Z,30.65
2018-12-31T09:07:45.719Z,30.05
2018-12-31T09:13:49.968Z,29.20
2018-12-31T09:19:54.140Z,30.00
2018-12-31T09:25:59.104Z,25.37
2018-12-31T09:32:03.385Z,26.87
2018-12-31T09:38:07.590Z,26.07
2018-12-31T09:44:11.897Z,23.18
2018-12-31T09:50:16.102Z,24.95
2018-12-31T09:56:20.420Z,22.07
2018-12-31T10:02:24.616Z,25.80
2018-12-31T10:08:29.058Z,20.95
2018-12-31T10:14:33.245Z,23.27
2018-12-31T10:20:37.607Z,20.68
2018-12-31T10:26:41.807Z,22.82
2018-12-31T10:32:46.092Z,20.23
2018-12-31T10:38:51.191Z,23.47
2018-12-31T10:44:55.655Z,23.57
2018-12-31T10:50:59.859Z,22.25
2018-12-31T10:57:04.247Z,21.05
2018-12-31T11:03:08.464Z,23.10
2018-12-31T11:09:12.791Z,22.90
2018-12-31T11:15:17.055Z,21.70
2018-12-31T11:21:21.334Z,20.97
2018-12-31T11:27:25.531Z,18.62
2018-12-31T11:33:29.886Z,17.57
2018-12-31T11:39:34.065Z,17.90
2018-12-31T11:45:38.386Z,16.85
2018-12-31T11:51:42.654Z,16.55
2018-12-31T11:57:47.052Z,15.30
2018-12-31T12:03:51.244Z,14.18
2018-12-31T12:09:59.539Z,13.83
2018-12-31T12:16:03.913Z,12.10
2018-12-31T12:22:08.099Z,13.43
2018-12-31T12:28:12.275Z,14.40
2018-12-31T12:34:16.595Z,8.05
2018-12-31T12:40:20.803Z,12.47
2018-12-31T12:46:25.306Z,17.42
2018-12-31T12:52:29.534Z,18.67
2018-12-31T12:58:33.863Z,7.75
2018-12-31T13:04:38.060Z,8.38
2018-12-31T13:10:42.228Z,16.70
2018-12-31T13:16:46.422Z,5.40
2018-12-31T13:22:50.715Z,20.70
2018-12-31T13:28:54.908Z,21.33
2018-12-31T13:34:59.232Z,14.28
2018-12-31T13:41:03.590Z,16.40
2018-12-31T13:47:07.886Z,21.33
2018-12-31T13:53:12.106Z,22.13
2018-12-31T13:59:16.514Z,25.75
2018-12-31T14:05:21.225Z,26.25
2018-12-31T14:11:25.626Z,26.07
2018-12-31T14:17:29.889Z,27.00
2018-12-31T14:23:34.948Z,27.20
2018-12-31T14:29:39.285Z,25.85
2018-12-31T14:35:45.851Z,25.05
2018-12-31T14:41:49.430Z,26.25
2018-12-31T14:47:53.718Z,26.95
2018-12-31T14:53:58.016Z,25.90
2018-12-31T15:00:02.248Z,22.75
2018-12-31T15:06:06.536Z,24.40
2018-12-31T15:12:10.715Z,26.12
2018-12-31T15:18:14.981Z,22.98
2018-12-31T15:24:19.535Z,26.33
2018-12-31T15:30:23.725Z,26.95
2018-12-31T15:36:27.967Z,28.42
2018-12-31T15:42:32.139Z,27.50
2018-12-31T15:48:36.327Z,29.18
2018-12-31T15:54:40.511Z,28.55
2018-12-31T16:00:44.809Z,29.82
2018-12-31T16:06:49.141Z,31.82
2018-12-31T16:12:53.623Z,31.48
2018-12-31T16:18:57.871Z,30.60
2018-12-31T16:25:02.129Z,31.87
2018-12-31T16:31:06.378Z,37.88
2018-12-31T16:37:10.554Z,29.45
2018-12-31T16:43:14.756Z,30.82
2018-12-31T16:49:19.110Z,27.35
2018-12-31T16:55:23.332Z,24.72
2018-12-31T17:01:27.641Z,21.62
2018-12-31T17:07:31.811Z,25.23
2018-12-31T17:13:36.011Z,22.25
2018-12-31T17:19:40.572Z,24.23
2018-12-31T17:25:44.820Z,21.85
2018-12-31T17:31:49.094Z,21.45
2018-12-31T17:37:53.346Z,23.22
2018-12-31T17:43:57.520Z,22.30
2018-12-31T17:50:01.796Z,21.70
2018-12-31T17:56:06.181Z,23.27
2018-12-31T18:02:10.501Z,23.90
2018-12-31T18:08:15.191Z,23.62
2018-12-31T18:14:19.364Z,23.87
2018-12-31T18:20:23.533Z,24.52
2018-12-31T18:26:27.742Z,25.25
2018-12-31T18:32:31.930Z,26.80
2018-12-31T18:38:36.121Z,25.80
2018-12-31T18:44:40.300Z,21.62
2018-12-31T18:50:47.231Z,19.62
2018-12-31T18:56:51.814Z,18.92
2018-12-31T19:02:56.070Z,21.52
2018-12-31T19:09:00.267Z,31.20
2018-12-31T19:15:04.669Z,19.30
2018-12-31T19:21:08.923Z,21.30
2018-12-31T19:27:13.254Z,22.62
2018-12-31T19:33:17.442Z,21.17
2018-12-31T19:39:21.721Z,20.50
2018-12-31T19:45:26.009Z,20.57
2018-12-31T19:51:30.436Z,22.27
2018-12-31T19:57:34.637Z,21.95
2018-12-31T20:03:39.110Z,20.90
2018-12-31T20:09:43.296Z,19.73
2018-12-31T20:15:48.736Z,22.48
2018-12-31T20:21:53.254Z,20.57
2018-12-31T20:27:57.516Z,26.97
2018-12-31T20:34:01.795Z,29.85
2018-12-31T20:40:06.281Z,32.42
2018-12-31T20:46:10.564Z,25.82
2018-12-31T20:52:14.869Z,20.37
2018-12-31T20:58:22.134Z,18.65
2018-12-31T21:04:26.461Z,18.82
2018-12-31T21:10:30.748Z,18.73
2018-12-31T21:16:39.930Z,19.62
2018-12-31T21:22:44.130Z,19.87
2018-12-31T21:28:48.611Z,15.38
2018-12-31T21:34:53.444Z,17.37
2018-12-31T21:40:57.626Z,17.32
2018-12-31T21:47:01.876Z,17.60
2018-12-31T21:53:06.125Z,13.85
2018-12-31T21:59:10.407Z,14.55
2018-12-31T22:05:14.668Z,16.87
2018-12-31T22:11:18.991Z,14.83
2018-12-31T22:17:23.203Z,15.13
2018-12-31T22:23:27.498Z,16.95
2018-12-31T22:29:31.767Z,18.57
2018-12-31T22:35:37.445Z,16.85
2018-12-31T22:41:44.710Z,18.20
2018-12-31T22:47:48.902Z,21.55
2018-12-31T22:53:53.239Z,19.23
2018-12-31T22:59:58.507Z,19.20
2018-12-31T23:06:02.806Z,18.62
2018-12-31T23:12:07.656Z,29.52
2018-12-31T23:18:11.849Z,26.60
2018-12-31T23:24:16.314Z,23.10
2018-12-31T23:30:20.567Z,30.43
2018-12-31T23:36:24.895Z,27.75
2018-12-31T23:42:29.491Z,24.25
2018-12-31T23:48:33.681Z,22.75
2018-12-31T23:54:37.998Z,21.77
